createdAt,value
2017-09-10T00:00:18.813Z,22.38
2017-09-10T00:00:50.729Z,22.37
2017-09-10T00:01:22.679Z,22.38
2017-09-10T00:01:54.627Z,22.37
2017-09-10T00:02:26.577Z,22.37
2017-09-10T00:02:58.226Z,22.38
2017-09-10T00:03:48.030Z,22.38
2017-09-10T00:04:27.610Z,22.26
2017-09-10T00:05:02.465Z,22.31
2017-09-10T00:05:39.893Z,22.38
2017-09-10T00:06:11.610Z,22.37
2017-09-10T00:06:43.353Z,22.38
2017-09-10T00:07:15.001Z,22.37
2017-09-10T00:07:46.682Z,22.37
2017-09-10T00:08:18.631Z,22.36
2017-09-10T00:08:50.337Z,22.37
2017-09-10T00:09:21.989Z,22.35
2017-09-10T00:09:53.865Z,22.35
2017-09-10T00:10:25.530Z,22.36
2017-09-10T00:10:57.178Z,22.35
2017-09-10T00:11:29.051Z,22.35
2017-09-10T00:12:01.001Z,22.36
2017-09-10T00:12:32.661Z,22.36
2017-09-10T00:13:04.326Z,22.35
2017-09-10T00:13:36.279Z,22.36
2017-09-10T00:14:07.929Z,22.36
2017-09-10T00:14:39.573Z,22.35
2017-09-10T00:15:11.228Z,22.35
2017-09-10T00:15:42.873Z,22.36
2017-09-10T00:16:14.517Z,22.36
2017-09-10T00:16:46.161Z,22.37
2017-09-10T00:17:17.808Z,22.36
2017-09-10T00:17:49.607Z,22.36
2017-09-10T00:18:21.364Z,22.35
2017-09-10T00:18:53.013Z,22.36
2017-09-10T00:19:24.665Z,22.36
2017-09-10T00:19:56.313Z,22.35
2017-09-10T00:20:27.965Z,22.35
2017-09-10T00:20:59.609Z,22.36
2017-09-10T00:21:31.257Z,22.36
2017-09-10T00:22:03.145Z,22.35
2017-09-10T00:22:34.809Z,22.35
2017-09-10T00:23:06.458Z,22.34
2017-09-10T00:23:38.112Z,22.34
2017-09-10T00:24:09.758Z,22.34
2017-09-10T00:24:41.409Z,22.34
2017-09-10T00:25:13.057Z,22.34
2017-09-10T00:25:44.858Z,22.33
2017-09-10T00:26:16.613Z,22.33
2017-09-10T00:26:48.265Z,22.32
2017-09-10T00:27:20.096Z,22.33
2017-09-10T00:27:51.756Z,22.32
2017-09-10T00:28:23.401Z,22.34
2017-09-10T00:28:55.050Z,22.33
2017-09-10T00:29:26.693Z,22.34
2017-09-10T00:29:58.337Z,22.34
2017-09-10T00:30:29.984Z,22.33
2017-09-10T00:31:01.633Z,22.33
2017-09-10T00:31:33.274Z,22.33
2017-09-10T00:32:04.927Z,22.32
2017-09-10T00:32:36.634Z,22.33
2017-09-10T00:33:09.294Z,22.33
2017-09-10T00:33:40.942Z,22.32
2017-09-10T00:34:12.596Z,22.32
2017-09-10T00:34:44.241Z,22.32
2017-09-10T00:35:16.054Z,22.31
2017-09-10T00:35:47.908Z,22.30
2017-09-10T00:36:19.569Z,22.31
2017-09-10T00:36:51.213Z,22.30
2017-09-10T00:37:22.858Z,22.32
2017-09-10T00:37:54.501Z,22.32
2017-09-10T00:38:26.149Z,22.33
2017-09-10T00:38:57.789Z,22.32
2017-09-10T00:39:29.433Z,22.33
2017-09-10T00:40:01.073Z,22.32
2017-09-10T00:40:32.718Z,22.33
2017-09-10T00:41:04.424Z,22.33
2017-09-10T00:41:36.074Z,22.34
2017-09-10T00:42:07.719Z,22.33
2017-09-10T00:42:39.369Z,22.33
2017-09-10T00:43:11.013Z,22.33
2017-09-10T00:43:42.668Z,22.33
2017-09-10T00:44:14.320Z,22.33
2017-09-10T00:44:45.973Z,22.33
2017-09-10T00:45:17.621Z,22.32
2017-09-10T00:45:49.508Z,22.33
2017-09-10T00:46:21.201Z,22.32
2017-09-10T00:46:52.857Z,22.33
2017-09-10T00:47:24.740Z,22.33
2017-09-10T00:47:56.389Z,22.33
2017-09-10T00:48:28.039Z,22.33
2017-09-10T00:48:59.685Z,22.32
2017-09-10T00:49:31.326Z,22.32
2017-09-10T00:50:02.969Z,22.32
2017-09-10T00:50:34.614Z,22.32
2017-09-10T00:51:06.268Z,22.32
2017-09-10T00:51:37.922Z,22.32
2017-09-10T00:52:09.764Z,22.32
2017-09-10T00:52:41.414Z,22.32
2017-09-10T00:53:13.065Z,22.32
2017-09-10T00:53:44.713Z,22.32
2017-09-10T00:54:16.392Z,22.32
2017-09-10T00:54:48.274Z,22.32
2017-09-10T00:55:19.920Z,22.31
2017-09-10T00:55:51.561Z,22.31
2017-09-10T00:56:23.209Z,22.31
2017-09-10T00:56:55.093Z,22.32
2017-09-10T00:57:26.794Z,22.32
2017-09-10T00:57:58.438Z,22.33
2017-09-10T00:58:30.093Z,22.33
2017-09-10T00:59:01.741Z,22.35
2017-09-10T00:59:33.425Z,22.35
2017-09-10T01:00:05.077Z,22.35
2017-09-10T01:00:36.725Z,22.35
2017-09-10T01:01:08.374Z,22.35
2017-09-10T01:01:40.024Z,22.35
2017-09-10T01:02:11.673Z,22.35
2017-09-10T01:02:55.619Z,22.35
2017-09-10T01:03:42.567Z,22.35
2017-09-10T01:04:20.503Z,22.34
2017-09-10T01:04:57.844Z,22.35
2017-09-10T01:05:39.010Z,22.35
2017-09-10T01:06:15.567Z,22.34
2017-09-10T01:06:51.859Z,22.34
2017-09-10T01:07:35.170Z,22.35
2017-09-10T01:08:13.306Z,22.21
2017-09-10T01:08:49.883Z,22.33
2017-09-10T01:09:29.102Z,22.33
2017-09-10T01:10:06.972Z,22.33
2017-09-10T01:10:40.153Z,22.33
2017-09-10T01:11:16.670Z,22.33
2017-09-10T01:12:47.684Z,22.31
2017-09-10T01:14:56.367Z,22.29
2017-09-10T01:15:34.087Z,22.31
2017-09-10T01:17:22.340Z,22.33
2017-09-10T01:18:04.283Z,22.33
2017-09-10T01:18:40.837Z,22.33
2017-09-10T01:20:02.261Z,22.32
2017-09-10T01:20:42.442Z,22.33
2017-09-10T01:21:14.374Z,22.32
2017-09-10T01:22:35.025Z,22.33
2017-09-10T01:23:06.867Z,22.32
2017-09-10T01:23:42.329Z,22.31
2017-09-10T01:24:19.377Z,22.31
2017-09-10T01:24:54.504Z,22.31
2017-09-10T01:25:33.499Z,22.31
2017-09-10T01:26:09.976Z,22.31
2017-09-10T01:26:49.281Z,22.31
2017-09-10T01:27:33.557Z,22.32
2017-09-10T01:28:05.636Z,22.32
2017-09-10T01:28:43.868Z,22.32
2017-09-10T01:29:22.280Z,22.31
2017-09-10T01:29:54.247Z,22.31
2017-09-10T01:30:31.694Z,22.31
2017-09-10T01:31:09.773Z,22.29
2017-09-10T01:31:43.107Z,22.28
2017-09-10T01:32:35.283Z,22.28
2017-09-10T01:35:30.682Z,22.26
2017-09-10T01:36:08.710Z,22.25
2017-09-10T01:36:46.022Z,22.24
2017-09-10T01:38:07.067Z,22.24
2017-09-10T01:38:41.089Z,22.24
2017-09-10T01:39:15.873Z,22.23
2017-09-10T01:39:47.874Z,22.23
2017-09-10T01:40:21.202Z,22.23
2017-09-10T01:40:55.285Z,22.22
2017-09-10T01:41:33.037Z,22.23
2017-09-10T01:42:15.498Z,22.23
2017-09-10T01:42:47.149Z,22.23
2017-09-10T01:43:25.182Z,22.23
2017-09-10T01:43:56.833Z,22.22
2017-09-10T01:44:28.516Z,22.22
2017-09-10T01:45:00.402Z,22.23
2017-09-10T01:45:32.153Z,22.22
2017-09-10T01:46:03.805Z,22.23
2017-09-10T01:46:35.453Z,22.22
2017-09-10T01:47:07.099Z,22.22
2017-09-10T01:47:38.984Z,22.21
2017-09-10T01:48:10.636Z,22.22
2017-09-10T01:48:42.285Z,22.21
2017-09-10T01:49:14.165Z,22.22
2017-09-10T01:49:45.808Z,22.21
2017-09-10T01:50:17.453Z,22.22
2017-09-10T01:50:58.062Z,22.23
2017-09-10T01:51:36.905Z,22.21
2017-09-10T01:52:21.621Z,22.21
2017-09-10T01:53:03.401Z,22.23
2017-09-10T01:53:45.204Z,22.25
2017-09-10T01:54:31.051Z,22.26
2017-09-10T01:55:07.853Z,22.26
2017-09-10T01:56:02.487Z,22.26
2017-09-10T01:56:39.185Z,22.24
2017-09-10T01:57:11.815Z,22.26
2017-09-10T01:58:27.882Z,22.24
2017-09-10T01:59:00.459Z,22.24
2017-09-10T02:00:28.176Z,22.26
2017-09-10T02:01:48.758Z,22.25
2017-09-10T02:03:11.647Z,22.24
2017-09-10T02:03:43.354Z,22.26
2017-09-10T02:04:17.137Z,22.25
2017-09-10T02:04:53.385Z,22.25
2017-09-10T02:05:31.463Z,22.21
2017-09-10T02:06:11.259Z,22.24
2017-09-10T02:06:46.388Z,22.24
2017-09-10T02:07:22.937Z,22.23
2017-09-10T02:08:45.325Z,22.23
2017-09-10T02:09:25.835Z,22.20
2017-09-10T02:10:10.333Z,22.24
2017-09-10T02:10:43.243Z,22.23
2017-09-10T02:11:15.429Z,22.23
2017-09-10T02:11:50.449Z,22.23
2017-09-10T02:12:28.614Z,22.24
2017-09-10T02:13:10.601Z,22.23
2017-09-10T02:13:47.396Z,22.23
2017-09-10T02:14:33.894Z,22.24
2017-09-10T02:15:10.329Z,22.23
2017-09-10T02:15:44.297Z,22.24
2017-09-10T02:16:15.945Z,22.24
2017-09-10T02:16:53.431Z,22.24
2017-09-10T02:17:27.366Z,22.23
2017-09-10T02:18:05.496Z,22.23
2017-09-10T02:18:48.366Z,22.23
2017-09-10T02:19:29.578Z,22.22
2017-09-10T02:20:15.349Z,22.22
2017-09-10T02:21:00.156Z,22.22
2017-09-10T02:21:37.046Z,22.21
2017-09-10T02:22:16.304Z,22.23
2017-09-10T02:22:52.594Z,22.23
2017-09-10T02:23:29.362Z,22.22
2017-09-10T02:24:05.069Z,22.24
2017-09-10T02:25:44.097Z,22.25
2017-09-10T02:26:24.208Z,22.26
2017-09-10T02:26:57.224Z,22.26
2017-09-10T02:27:31.479Z,22.26
2017-09-10T02:28:03.561Z,22.25
2017-09-10T02:28:49.830Z,22.26
2017-09-10T02:29:28.536Z,22.27
2017-09-10T02:30:10.254Z,22.27
2017-09-10T02:30:46.245Z,22.27
2017-09-10T02:31:25.834Z,22.27
2017-09-10T02:32:00.892Z,22.26
2017-09-10T02:32:41.460Z,22.27
2017-09-10T02:33:18.730Z,22.26
2017-09-10T02:33:59.184Z,22.27
2017-09-10T02:34:39.041Z,22.25
2017-09-10T02:35:18.248Z,22.26
2017-09-10T02:35:52.626Z,22.23
2017-09-10T02:36:34.421Z,22.25
2017-09-10T02:37:14.871Z,22.25
2017-09-10T02:37:56.792Z,22.26
2017-09-10T02:38:35.971Z,22.27
2017-09-10T02:39:21.796Z,22.27
2017-09-10T02:39:58.919Z,22.27
2017-09-10T02:40:39.147Z,22.28
2017-09-10T02:41:15.412Z,22.27
2017-09-10T02:41:56.040Z,22.27
2017-09-10T02:42:37.205Z,22.27
2017-09-10T02:43:59.479Z,22.27
2017-09-10T02:44:43.065Z,22.28
2017-09-10T02:45:21.253Z,22.29
2017-09-10T02:45:58.650Z,22.30
2017-09-10T02:46:31.152Z,22.29
2017-09-10T02:47:12.686Z,22.29
2017-09-10T02:47:54.780Z,22.30
2017-09-10T02:48:40.585Z,22.30
2017-09-10T02:49:13.713Z,22.30
2017-09-10T02:49:53.750Z,22.30
2017-09-10T02:50:26.525Z,22.31
2017-09-10T02:50:58.177Z,22.30
2017-09-10T02:51:29.824Z,22.30
2017-09-10T02:52:01.470Z,22.31
2017-09-10T02:52:33.121Z,22.30
2017-09-10T02:53:04.765Z,22.30
2017-09-10T02:53:36.413Z,22.31
2017-09-10T02:54:08.057Z,22.30
2017-09-10T02:54:39.723Z,22.29
2017-09-10T02:55:11.603Z,22.28
2017-09-10T02:55:43.298Z,22.28
2017-09-10T02:56:15.193Z,22.28
2017-09-10T02:56:46.844Z,22.29
2017-09-10T02:57:18.533Z,22.28
2017-09-10T02:57:50.178Z,22.28
2017-09-10T02:58:21.840Z,22.28
2017-09-10T02:58:53.485Z,22.27
2017-09-10T02:59:25.334Z,22.27
2017-09-10T02:59:56.995Z,22.25
2017-09-10T03:00:28.641Z,22.26
2017-09-10T03:01:00.293Z,22.26
2017-09-10T03:01:31.937Z,22.28
2017-09-10T03:02:03.629Z,22.27
2017-09-10T03:02:35.475Z,22.27
2017-09-10T03:03:07.460Z,22.26
2017-09-10T03:03:39.115Z,22.26
2017-09-10T03:04:10.765Z,22.25
2017-09-10T03:04:42.693Z,22.25
2017-09-10T03:05:14.542Z,22.25
2017-09-10T03:05:46.233Z,22.26
2017-09-10T03:06:17.881Z,22.25
2017-09-10T03:06:49.529Z,22.27
2017-09-10T03:07:25.524Z,22.29
2017-09-10T03:08:05.524Z,22.29
2017-09-10T03:08:40.775Z,22.28
2017-09-10T03:09:16.115Z,22.27
2017-09-10T03:09:54.836Z,22.28
2017-09-10T03:10:26.877Z,22.27
2017-09-10T03:11:08.136Z,22.26
2017-09-10T03:11:45.123Z,22.26
2017-09-10T03:12:28.125Z,22.27
2017-09-10T03:13:05.891Z,22.29
2017-09-10T03:13:37.969Z,22.30
2017-09-10T03:14:14.570Z,22.30
2017-09-10T03:14:47.507Z,22.33
2017-09-10T03:15:27.512Z,22.35
2017-09-10T03:16:02.937Z,22.36
2017-09-10T03:16:39.191Z,22.34
2017-09-10T03:17:11.039Z,22.33
2017-09-10T03:17:47.787Z,22.31
2017-09-10T03:19:45.575Z,22.24
2017-09-10T03:21:14.960Z,22.24
2017-09-10T03:21:51.549Z,22.24
2017-09-10T03:22:28.664Z,22.24
2017-09-10T03:23:07.390Z,22.24
2017-09-10T03:23:39.602Z,22.24
2017-09-10T03:24:26.956Z,22.23
2017-09-10T03:25:00.761Z,22.23
2017-09-10T03:25:35.157Z,22.25
2017-09-10T03:26:17.246Z,22.25
2017-09-10T03:26:54.933Z,22.25
2017-09-10T03:27:31.599Z,22.29
2017-09-10T03:28:14.646Z,22.30
2017-09-10T03:28:48.435Z,22.30
2017-09-10T03:29:20.538Z,22.30
2017-09-10T03:30:08.247Z,22.30
2017-09-10T03:30:44.818Z,22.30
2017-09-10T03:33:15.131Z,22.30
2017-09-10T03:33:50.173Z,22.31
2017-09-10T03:35:14.395Z,22.34
2017-09-10T03:35:48.007Z,22.33
2017-09-10T03:36:23.250Z,22.33
2017-09-10T03:36:58.210Z,22.34
2017-09-10T03:37:32.171Z,22.34
2017-09-10T03:38:10.013Z,22.33
2017-09-10T03:38:43.333Z,22.33
2017-09-10T03:39:18.016Z,22.32
2017-09-10T03:39:49.921Z,22.32
2017-09-10T03:40:27.598Z,22.31
2017-09-10T03:41:11.568Z,22.30
2017-09-10T03:41:47.173Z,22.30
2017-09-10T03:42:33.077Z,22.29
2017-09-10T03:43:08.251Z,22.28
2017-09-10T03:43:40.817Z,22.28
2017-09-10T03:44:13.163Z,22.28
2017-09-10T03:44:45.380Z,22.28
2017-09-10T03:46:07.893Z,22.27
2017-09-10T03:46:39.538Z,22.27
2017-09-10T03:47:11.192Z,22.28
2017-09-10T03:47:42.845Z,22.28
2017-09-10T03:48:14.532Z,22.29
2017-09-10T03:48:46.185Z,22.28
2017-09-10T03:49:25.202Z,22.28
2017-09-10T03:50:10.613Z,22.29
2017-09-10T03:50:53.142Z,22.30
2017-09-10T03:51:32.076Z,22.31
2017-09-10T03:52:14.485Z,22.29
2017-09-10T03:52:51.680Z,22.29
2017-09-10T03:53:28.538Z,22.28
2017-09-10T03:54:08.893Z,22.28
2017-09-10T03:54:42.362Z,22.29
2017-09-10T03:55:14.006Z,22.29
2017-09-10T03:55:49.288Z,22.28
2017-09-10T03:56:26.990Z,22.26
2017-09-10T03:58:04.737Z,22.26
2017-09-10T03:58:48.114Z,22.26
2017-09-10T03:59:26.584Z,22.26
2017-09-10T04:00:16.771Z,22.25
2017-09-10T04:02:38.923Z,22.24
2017-09-10T04:03:13.668Z,22.25
2017-09-10T04:03:46.786Z,22.24
2017-09-10T04:04:23.918Z,22.23
2017-09-10T04:05:01.864Z,22.23
2017-09-10T04:05:44.028Z,22.24
2017-09-10T04:06:25.409Z,22.23
2017-09-10T04:07:08.640Z,22.22
2017-09-10T04:07:46.257Z,22.22
2017-09-10T04:08:19.641Z,22.22
2017-09-10T04:08:56.813Z,22.22
2017-09-10T04:09:38.953Z,22.22
2017-09-10T04:10:12.440Z,22.24
2017-09-10T04:10:50.819Z,22.23
2017-09-10T04:11:30.179Z,22.23
2017-09-10T04:12:09.184Z,22.23
2017-09-10T04:12:46.063Z,22.24
2017-09-10T04:13:23.735Z,22.24
2017-09-10T04:13:57.315Z,22.24
2017-09-10T04:14:39.780Z,22.25
2017-09-10T04:15:18.443Z,22.25
2017-09-10T04:15:57.438Z,22.26
2017-09-10T04:16:34.035Z,22.25
2017-09-10T04:17:17.753Z,22.24
2017-09-10T04:17:50.059Z,22.23
2017-09-10T04:18:26.255Z,22.24
2017-09-10T04:19:02.992Z,22.24
2017-09-10T04:19:36.548Z,22.24
2017-09-10T04:20:13.642Z,22.25
2017-09-10T04:20:54.473Z,22.25
2017-09-10T04:21:26.257Z,22.25
2017-09-10T04:23:22.571Z,22.24
2017-09-10T04:24:01.881Z,22.23
2017-09-10T04:24:36.395Z,22.23
2017-09-10T04:25:08.882Z,22.24
2017-09-10T04:25:44.379Z,22.23
2017-09-10T04:26:17.052Z,22.23
2017-09-10T04:26:52.383Z,22.23
2017-09-10T04:27:24.276Z,22.22
2017-09-10T04:27:55.925Z,22.22
2017-09-10T04:28:31.605Z,22.22
2017-09-10T04:29:07.957Z,22.22
2017-09-10T04:29:42.345Z,22.22
2017-09-10T04:30:19.065Z,22.21
2017-09-10T04:30:50.710Z,22.21
2017-09-10T04:31:26.409Z,22.20
2017-09-10T04:32:00.788Z,22.20
2017-09-10T04:32:39.182Z,22.20
2017-09-10T04:33:18.004Z,22.21
2017-09-10T04:33:50.316Z,22.20
2017-09-10T04:34:26.430Z,22.20
2017-09-10T04:35:01.597Z,22.20
2017-09-10T04:35:33.250Z,22.20
2017-09-10T04:36:04.943Z,22.20
2017-09-10T04:36:43.432Z,22.20
2017-09-10T04:37:17.225Z,22.20
2017-09-10T04:37:48.995Z,22.20
2017-09-10T04:38:22.154Z,22.20
2017-09-10T04:38:54.648Z,22.22
2017-09-10T04:39:29.326Z,22.22
2017-09-10T04:40:02.443Z,22.24
2017-09-10T04:40:35.374Z,22.24
2017-09-10T04:41:08.381Z,22.25
2017-09-10T04:41:40.029Z,22.24
2017-09-10T04:42:13.043Z,22.24
2017-09-10T04:42:44.985Z,22.25
2017-09-10T04:43:21.706Z,22.25
2017-09-10T04:43:55.709Z,22.25
2017-09-10T04:44:30.109Z,22.24
2017-09-10T04:45:07.474Z,22.25
2017-09-10T04:45:45.985Z,22.25
2017-09-10T04:46:28.406Z,22.25
2017-09-10T04:47:10.130Z,22.24
2017-09-10T04:47:41.789Z,22.25
2017-09-10T04:48:14.553Z,22.26
2017-09-10T04:48:50.989Z,22.26
2017-09-10T04:49:23.211Z,22.26
2017-09-10T04:49:55.233Z,22.25
2017-09-10T04:50:29.525Z,22.26
2017-09-10T04:51:01.442Z,22.26
2017-09-10T04:51:34.152Z,22.26
2017-09-10T04:52:08.919Z,22.25
2017-09-10T04:52:41.476Z,22.25
2017-09-10T04:53:18.561Z,22.25
2017-09-10T04:53:52.261Z,22.26
2017-09-10T04:54:27.168Z,22.25
2017-09-10T04:55:09.645Z,22.25
2017-09-10T04:55:42.237Z,22.25
2017-09-10T04:56:17.153Z,22.26
2017-09-10T04:56:49.935Z,22.26
2017-09-10T04:57:23.307Z,22.25
2017-09-10T04:57:55.048Z,22.25
2017-09-10T04:58:32.428Z,22.25
2017-09-10T04:59:06.868Z,22.24
2017-09-10T04:59:39.504Z,22.25
2017-09-10T05:00:11.750Z,22.26
2017-09-10T05:00:43.603Z,22.25
2017-09-10T05:01:15.581Z,22.25
2017-09-10T05:01:47.508Z,22.25
2017-09-10T05:02:19.158Z,22.26
2017-09-10T05:02:50.833Z,22.26
2017-09-10T05:03:22.485Z,22.26
2017-09-10T05:03:54.129Z,22.27
2017-09-10T05:04:26.133Z,22.27
2017-09-10T05:04:58.582Z,22.26
2017-09-10T05:05:30.242Z,22.26
2017-09-10T05:06:01.885Z,22.27
2017-09-10T05:06:33.526Z,22.27
2017-09-10T05:07:05.174Z,22.26
2017-09-10T05:07:36.825Z,22.25
2017-09-10T05:08:08.478Z,22.27
2017-09-10T05:08:40.133Z,22.26
2017-09-10T05:09:11.829Z,22.27
2017-09-10T05:09:43.474Z,22.27
2017-09-10T05:10:15.117Z,22.27
2017-09-10T05:10:46.765Z,22.26
2017-09-10T05:11:18.621Z,22.27
2017-09-10T05:11:50.572Z,22.27
2017-09-10T05:12:22.220Z,22.26
2017-09-10T05:12:53.865Z,22.27
2017-09-10T05:13:25.511Z,22.26
2017-09-10T05:13:57.159Z,22.26
2017-09-10T05:14:28.883Z,22.25
2017-09-10T05:15:00.525Z,22.26
2017-09-10T05:15:32.166Z,22.27
2017-09-10T05:16:03.808Z,22.27
2017-09-10T05:16:35.457Z,22.27
2017-09-10T05:17:07.098Z,22.27
2017-09-10T05:17:38.749Z,22.27
2017-09-10T05:18:10.398Z,22.27
2017-09-10T05:18:42.041Z,22.26
2017-09-10T05:19:13.685Z,22.27
2017-09-10T05:19:45.476Z,22.27
2017-09-10T05:20:17.130Z,22.28
2017-09-10T05:20:48.778Z,22.28
2017-09-10T05:21:20.422Z,22.29
2017-09-10T05:21:52.351Z,22.30
2017-09-10T05:22:24.214Z,22.31
2017-09-10T05:22:55.861Z,22.26
2017-09-10T05:23:27.512Z,22.31
2017-09-10T05:23:59.161Z,22.31
2017-09-10T05:24:30.805Z,22.30
2017-09-10T05:25:02.461Z,22.29
2017-09-10T05:25:34.109Z,22.31
2017-09-10T05:26:05.757Z,22.31
2017-09-10T05:26:37.435Z,22.30
2017-09-10T05:27:09.121Z,22.30
2017-09-10T05:27:40.769Z,22.30
2017-09-10T05:28:12.423Z,22.29
2017-09-10T05:28:44.310Z,22.29
2017-09-10T05:29:16.260Z,22.30
2017-09-10T05:29:47.914Z,22.29
2017-09-10T05:30:19.562Z,22.28
2017-09-10T05:30:51.209Z,22.28
2017-09-10T05:31:22.852Z,22.28
2017-09-10T05:31:54.740Z,22.26
2017-09-10T05:32:26.433Z,22.26
2017-09-10T05:32:58.081Z,22.25
2017-09-10T05:33:29.786Z,22.24
2017-09-10T05:34:01.651Z,22.25
2017-09-10T05:34:33.301Z,22.25
2017-09-10T05:35:04.949Z,22.26
2017-09-10T05:35:36.597Z,22.26
2017-09-10T05:36:08.241Z,22.26
2017-09-10T05:36:39.889Z,22.25
2017-09-10T05:37:11.533Z,22.25
2017-09-10T05:37:43.186Z,22.25
2017-09-10T05:38:14.829Z,22.25
2017-09-10T05:38:46.473Z,22.25
2017-09-10T05:39:18.122Z,22.25
2017-09-10T05:39:49.765Z,22.25
2017-09-10T05:40:21.628Z,22.26
2017-09-10T05:40:53.281Z,22.25
2017-09-10T05:41:24.944Z,22.25
2017-09-10T05:41:56.897Z,22.26
2017-09-10T05:42:28.545Z,22.25
2017-09-10T05:43:00.189Z,22.25
2017-09-10T05:43:32.671Z,22.25
2017-09-10T05:44:04.338Z,22.25
2017-09-10T05:44:35.981Z,22.25
2017-09-10T05:45:07.625Z,22.25
2017-09-10T05:45:39.528Z,22.25
2017-09-10T05:46:11.177Z,22.24
2017-09-10T05:46:43.397Z,22.24
2017-09-10T05:47:18.034Z,22.25
2017-09-10T05:47:53.816Z,22.26
2017-09-10T05:48:26.120Z,22.25
2017-09-10T05:48:58.038Z,22.26
2017-09-10T05:49:29.882Z,22.25
2017-09-10T05:50:01.660Z,22.26
2017-09-10T05:50:33.309Z,22.27
2017-09-10T05:51:05.142Z,22.28
2017-09-10T05:51:36.893Z,22.29
2017-09-10T05:52:08.781Z,22.30
2017-09-10T05:52:40.484Z,22.30
2017-09-10T05:53:12.133Z,22.31
2017-09-10T05:53:43.999Z,22.30
2017-09-10T05:54:15.715Z,22.31
2017-09-10T05:54:47.409Z,22.30
2017-09-10T05:55:19.308Z,22.31
2017-09-10T05:55:51.192Z,22.31
2017-09-10T05:56:22.838Z,22.30
2017-09-10T05:56:54.481Z,22.29
2017-09-10T05:57:26.183Z,22.30
2017-09-10T05:57:58.012Z,22.30
2017-09-10T05:58:29.678Z,22.30
2017-09-10T05:59:01.321Z,22.29
2017-09-10T05:59:32.974Z,22.29
2017-09-10T06:00:04.726Z,22.28
2017-09-10T06:00:36.373Z,22.28
2017-09-10T06:01:08.017Z,22.28
2017-09-10T06:01:39.665Z,22.27
2017-09-10T06:02:11.313Z,22.28
2017-09-10T06:02:42.959Z,22.28
2017-09-10T06:03:15.262Z,22.28
2017-09-10T06:03:47.115Z,22.29
2017-09-10T06:04:18.765Z,22.28
2017-09-10T06:04:50.857Z,22.29
2017-09-10T06:05:22.505Z,22.29
2017-09-10T06:05:54.296Z,22.29
2017-09-10T06:06:25.959Z,22.29
2017-09-10T06:06:57.602Z,22.29
2017-09-10T06:07:29.245Z,22.30
2017-09-10T06:08:00.898Z,22.30
2017-09-10T06:08:32.541Z,22.30
2017-09-10T06:09:04.193Z,22.30
2017-09-10T06:09:35.845Z,22.30
2017-09-10T06:10:07.489Z,22.30
2017-09-10T06:10:39.137Z,22.30
2017-09-10T06:11:10.877Z,22.29
2017-09-10T06:11:42.525Z,22.30
2017-09-10T06:12:14.308Z,22.30
2017-09-10T06:12:45.957Z,22.29
2017-09-10T06:13:17.604Z,22.30
2017-09-10T06:13:49.253Z,22.29
2017-09-10T06:14:20.896Z,22.30
2017-09-10T06:14:52.541Z,22.30
2017-09-10T06:15:24.189Z,22.30
2017-09-10T06:15:55.845Z,22.30
2017-09-10T06:16:27.751Z,22.31
2017-09-10T06:16:59.402Z,22.31
2017-09-10T06:17:31.049Z,22.31
2017-09-10T06:18:02.749Z,22.31
2017-09-10T06:18:34.551Z,22.31
2017-09-10T06:19:06.201Z,22.30
2017-09-10T06:19:37.845Z,22.28
2017-09-10T06:20:09.493Z,22.27
2017-09-10T06:20:41.158Z,22.25
2017-09-10T06:21:12.835Z,22.26
2017-09-10T06:21:44.481Z,22.26
2017-09-10T06:22:16.140Z,22.26
2017-09-10T06:22:47.786Z,22.26
2017-09-10T06:23:19.438Z,22.25
2017-09-10T06:23:51.311Z,22.25
2017-09-10T06:24:22.992Z,22.25
2017-09-10T06:24:54.829Z,22.26
2017-09-10T06:25:26.583Z,22.25
2017-09-10T06:25:58.237Z,22.25
2017-09-10T06:26:29.891Z,22.25
2017-09-10T06:27:01.547Z,22.24
2017-09-10T06:27:33.193Z,22.24
2017-09-10T06:28:04.846Z,22.25
2017-09-10T06:28:36.493Z,22.24
2017-09-10T06:29:08.193Z,22.24
2017-09-10T06:29:39.842Z,22.25
2017-09-10T06:30:11.493Z,22.25
2017-09-10T06:30:43.147Z,22.23
2017-09-10T06:31:14.793Z,22.23
2017-09-10T06:31:46.445Z,22.22
2017-09-10T06:32:18.093Z,22.21
2017-09-10T06:32:49.737Z,22.20
2017-09-10T06:33:21.433Z,22.20
2017-09-10T06:33:53.078Z,22.21
2017-09-10T06:34:24.722Z,22.22
2017-09-10T06:34:56.369Z,22.24
2017-09-10T06:35:28.020Z,22.23
2017-09-10T06:35:59.670Z,22.23
2017-09-10T06:36:31.317Z,22.24
2017-09-10T06:37:03.012Z,22.24
2017-09-10T06:37:34.961Z,22.23
2017-09-10T06:38:06.609Z,22.22
2017-09-10T06:38:38.304Z,22.22
2017-09-10T06:39:09.953Z,22.22
2017-09-10T06:39:41.602Z,22.23
2017-09-10T06:40:13.253Z,22.23
2017-09-10T06:40:44.901Z,22.22
2017-09-10T06:41:16.765Z,22.21
2017-09-10T06:41:48.469Z,22.23
2017-09-10T06:42:20.354Z,22.24
2017-09-10T06:42:52.001Z,22.27
2017-09-10T06:43:23.645Z,22.31
2017-09-10T06:43:55.289Z,22.33
2017-09-10T06:44:26.943Z,22.35
2017-09-10T06:44:58.584Z,22.38
2017-09-10T06:45:30.233Z,22.40
2017-09-10T06:46:01.874Z,22.42
2017-09-10T06:46:33.517Z,22.43
2017-09-10T06:47:05.393Z,22.42
2017-09-10T06:47:37.079Z,22.42
2017-09-10T06:48:08.729Z,22.44
2017-09-10T06:48:40.422Z,22.46
2017-09-10T06:49:12.111Z,22.42
2017-09-10T06:49:43.757Z,22.39
2017-09-10T06:50:15.405Z,22.35
2017-09-10T06:50:47.049Z,22.30
2017-09-10T06:51:18.693Z,22.27
2017-09-10T06:51:50.341Z,22.23
2017-09-10T06:52:21.988Z,22.18
2017-09-10T06:52:53.634Z,22.14
2017-09-10T06:53:25.447Z,22.10
2017-09-10T06:53:57.160Z,22.07
2017-09-10T06:54:29.038Z,22.05
2017-09-10T06:55:00.987Z,22.01
2017-09-10T06:55:32.888Z,21.99
2017-09-10T06:56:04.549Z,21.97
2017-09-10T06:56:36.219Z,21.94
2017-09-10T06:57:08.113Z,21.92
2017-09-10T06:57:39.765Z,21.91
2017-09-10T06:58:11.411Z,21.90
2017-09-10T06:58:43.095Z,21.88
2017-09-10T06:59:14.789Z,21.86
2017-09-10T06:59:46.686Z,21.84
2017-09-10T07:00:18.531Z,21.83
2017-09-10T07:00:50.181Z,21.81
2017-09-10T07:01:21.829Z,21.80
2017-09-10T07:01:53.477Z,21.79
2017-09-10T07:02:25.129Z,21.78
2017-09-10T07:02:56.777Z,21.77
2017-09-10T07:03:28.485Z,21.76
2017-09-10T07:04:00.368Z,21.75
2017-09-10T07:04:32.019Z,21.74
2017-09-10T07:05:03.665Z,21.73
2017-09-10T07:05:35.381Z,21.72
2017-09-10T07:06:07.029Z,21.72
2017-09-10T07:06:38.674Z,21.71
2017-09-10T07:07:10.321Z,21.70
2017-09-10T07:07:41.971Z,21.70
2017-09-10T07:08:13.621Z,21.70
2017-09-10T07:08:45.278Z,21.69
2017-09-10T07:09:17.129Z,21.68
2017-09-10T07:09:48.803Z,21.67
2017-09-10T07:10:20.453Z,21.67
2017-09-10T07:10:52.154Z,21.67
2017-09-10T07:11:23.998Z,21.67
2017-09-10T07:11:55.682Z,21.66
2017-09-10T07:12:27.627Z,21.66
2017-09-10T07:12:59.277Z,21.67
2017-09-10T07:13:30.937Z,21.66
2017-09-10T07:14:02.581Z,21.67
2017-09-10T07:14:34.221Z,21.67
2017-09-10T07:15:05.865Z,21.67
2017-09-10T07:15:37.693Z,21.67
2017-09-10T07:16:09.381Z,21.66
2017-09-10T07:16:41.070Z,21.66
2017-09-10T07:17:12.911Z,21.65
2017-09-10T07:17:44.570Z,21.66
2017-09-10T07:18:16.217Z,21.66
2017-09-10T07:18:47.885Z,21.66
2017-09-10T07:19:19.586Z,21.66
2017-09-10T07:19:51.273Z,21.66
2017-09-10T07:20:22.926Z,21.66
2017-09-10T07:20:54.819Z,21.66
2017-09-10T07:21:26.481Z,21.66
2017-09-10T07:21:58.410Z,21.66
2017-09-10T07:22:30.063Z,21.67
2017-09-10T07:23:01.709Z,21.66
2017-09-10T07:23:33.353Z,21.66
2017-09-10T07:24:05.009Z,21.67
2017-09-10T07:24:36.670Z,21.67
2017-09-10T07:25:08.389Z,21.68
2017-09-10T07:25:40.051Z,21.68
2017-09-10T07:26:11.725Z,21.68
2017-09-10T07:26:43.494Z,21.68
2017-09-10T07:27:15.138Z,21.69
2017-09-10T07:27:47.085Z,21.68
2017-09-10T07:28:18.738Z,21.69
2017-09-10T07:28:50.390Z,21.68
2017-09-10T07:29:22.041Z,21.68
2017-09-10T07:29:53.694Z,21.67
2017-09-10T07:30:25.645Z,21.67
2017-09-10T07:30:57.297Z,21.67
2017-09-10T07:31:28.945Z,21.66
2017-09-10T07:32:00.625Z,21.66
2017-09-10T07:32:32.460Z,21.67
2017-09-10T07:33:04.125Z,21.66
2017-09-10T07:33:35.778Z,21.66
2017-09-10T07:34:07.706Z,21.66
2017-09-10T07:34:39.604Z,21.65
2017-09-10T07:35:11.254Z,21.65
2017-09-10T07:35:42.953Z,21.65
2017-09-10T07:36:14.601Z,21.64
2017-09-10T07:36:46.253Z,21.66
2017-09-10T07:37:17.897Z,21.65
2017-09-10T07:37:49.547Z,21.65
2017-09-10T07:38:21.514Z,21.66
2017-09-10T07:38:53.408Z,21.65
2017-09-10T07:39:25.089Z,21.65
2017-09-10T07:39:56.736Z,21.66